Time;durP1;ratioP1;P1;durP2;ratioP2;P2;SDS_P1;SDS_P2;PMS_P1;PMS_P2;Temp;Humidity;BMP_temperature;BMP_pressure;BME280_temperature;BME280_humidity;BME280_pressure;Samples;Min_cycle;Max_cycle;Signal;HPM_P1;HPM_P2
2022/05/28 00:00:19;;;;;;;2.50;2.50;;;23.20;67.90;;;;;;5053393;28;20468;-67
2022/05/28 00:02:47;;;;;;;3.00;2.90;;;23.10;67.80;;;;;;5053404;28;20486;-68
2022/05/28 00:05:14;;;;;;;2.60;2.50;;;23.10;67.80;;;;;;5053390;28;20448;-70
2022/05/28 00:07:40;;;;;;;2.67;2.57;;;23.10;67.80;;;;;;5053112;28;20539;-69
2022/05/28 00:10:09;;;;;;;2.83;2.83;;;23.10;67.90;;;;;;5053245;28;20464;-68
2022/05/28 00:12:38;;;;;;;2.20;2.20;;;23.10;67.90;;;;;;5053279;28;20897;-68
2022/05/28 00:15:06;;;;;;;2.40;2.40;;;23.10;67.80;;;;;;5053185;28;20449;-66
2022/05/28 00:17:33;;;;;;;2.50;2.40;;;23.10;67.70;;;;;;5052977;28;20449;-67
2022/05/28 00:20:00;;;;;;;2.00;2.00;;;23.10;67.80;;;;;;5053139;28;20460;-66
2022/05/28 00:22:27;;;;;;;2.60;2.50;;;23.10;67.70;;;;;;5053129;28;20562;-66
2022/05/28 00:24:55;;;;;;;2.70;2.60;;;23.10;67.70;;;;;;5053193;28;20451;-66
2022/05/28 00:27:22;;;;;;;4.93;2.83;;;23.20;67.80;;;;;;5052878;28;20448;-66
2022/05/28 00:29:51;;;;;;;2.10;2.00;;;23.20;67.80;;;;;;5052684;28;20486;-65
2022/05/28 00:32:18;;;;;;;2.60;2.60;;;23.10;67.70;;;;;;5052902;28;20444;-66
2022/05/28 00:34:45;;;;;;;2.27;2.27;;;23.20;67.80;;;;;;5052915;28;20444;-65
2022/05/28 00:37:11;;;;;;;2.30;2.20;;;23.10;67.70;;;;;;5052634;28;20815;-65
2022/05/28 00:39:38;;;;;;;2.80;2.70;;;23.10;67.60;;;;;;5052594;28;20467;-65
2022/05/28 00:42:06;;;;;;;2.23;2.20;;;23.10;67.70;;;;;;5052691;28;20662;-66
2022/05/28 00:44:32;;;;;;;2.63;2.53;;;23.10;67.90;;;;;;5052794;28;20508;-65
2022/05/28 00:47:01;;;;;;;2.47;2.37;;;23.10;67.70;;;;;;5052518;28;20448;-66
2022/05/28 00:49:30;;;;;;;2.17;2.17;;;23.10;67.70;;;;;;5052524;28;20475;-66
2022/05/28 00:52:00;;;;;;;2.60;2.47;;;23.10;67.80;;;;;;5052553;28;21090;-66
2022/05/28 00:54:31;;;;;;;3.03;2.60;;;23.10;67.60;;;;;;5052820;28;20939;-66
2022/05/28 00:56:59;;;;;;;2.93;2.93;;;23.10;67.60;;;;;;5053941;28;20845;-66
2022/05/28 00:59:26;;;;;;;2.83;2.73;;;23.10;67.60;;;;;;5053578;28;20476;-66
2022/05/28 01:01:59;;;;;;;2.10;2.00;;;23.00;67.50;;;;;;5054086;28;20815;-66
2022/05/28 01:04:35;;;;;;;2.70;2.60;;;23.00;67.60;;;;;;5053983;28;20448;-67
2022/05/28 01:07:08;;;;;;;2.53;2.33;;;23.00;67.60;;;;;;5054485;28;20455;-67
2022/05/28 01:09:46;;;;;;;2.50;2.50;;;23.00;67.60;;;;;;5053879;28;20468;-65
2022/05/28 01:12:16;;;;;;;2.53;2.40;;;23.00;67.60;;;;;;5052611;28;20436;-65
2022/05/28 01:14:52;;;;;;;2.50;2.40;;;23.00;67.50;;;;;;5053043;28;20436;-65
2022/05/28 01:17:22;;;;;;;2.63;2.53;;;22.90;67.50;;;;;;5052990;28;20953;-66
2022/05/28 01:19:59;;;;;;;2.90;2.67;;;22.90;67.50;;;;;;5053769;28;21062;-65
2022/05/28 01:22:41;;;;;;;2.20;2.20;;;22.90;67.50;;;;;;5052692;28;20484;-66
2022/05/28 01:25:15;;;;;;;2.50;2.40;;;22.90;67.50;;;;;;5052252;28;20444;-66
2022/05/28 01:27:48;;;;;;;2.90;2.70;;;22.90;67.50;;;;;;5051881;28;20440;-66
2022/05/28 01:30:18;;;;;;;2.50;2.50;;;22.80;67.40;;;;;;5051809;28;20991;-66
2022/05/28 01:32:48;;;;;;;2.60;2.60;;;22.90;67.50;;;;;;5052223;28;20441;-66
2022/05/28 01:35:18;;;;;;;2.50;2.50;;;22.90;67.60;;;;;;5051720;28;20502;-66
2022/05/28 01:37:47;;;;;;;2.73;2.57;;;22.80;67.40;;;;;;5051554;28;20444;-66
2022/05/28 01:40:16;;;;;;;2.47;2.47;;;22.80;67.40;;;;;;5051656;28;20464;-66
2022/05/28 01:42:48;;;;;;;2.40;2.40;;;22.80;67.50;;;;;;5051571;28;20487;-66
2022/05/28 01:45:17;;;;;;;2.63;2.60;;;22.80;67.50;;;;;;5051679;28;20452;-66
2022/05/28 01:47:45;;;;;;;2.60;2.50;;;22.80;67.60;;;;;;5051503;28;20948;-66
2022/05/28 01:50:14;;;;;;;2.17;2.17;;;22.70;67.50;;;;;;5051521;28;20551;-65
2022/05/28 01:52:43;;;;;;;2.20;2.10;;;22.80;67.60;;;;;;5051695;28;20439;-66
2022/05/28 01:55:13;;;;;;;2.30;2.20;;;22.70;67.50;;;;;;5051658;28;20444;-66
2022/05/28 01:57:40;;;;;;;2.10;2.10;;;22.70;67.50;;;;;;5051357;28;20455;-66
2022/05/28 02:00:09;;;;;;;2.17;2.17;;;22.70;67.50;;;;;;5051463;28;20468;-66
2022/05/28 02:02:37;;;;;;;2.13;2.13;;;22.70;67.50;;;;;;5051519;28;21001;-66
2022/05/28 02:05:04;;;;;;;2.20;2.20;;;22.70;67.50;;;;;;5051665;28;20509;-66
2022/05/28 02:07:31;;;;;;;2.10;2.10;;;22.70;67.50;;;;;;5051620;28;20440;-66
2022/05/28 02:10:03;;;;;;;2.00;2.00;;;22.70;67.50;;;;;;5051416;28;20476;-66
2022/05/28 02:12:32;;;;;;;2.60;2.60;;;22.70;68.30;;;;;;5051421;28;20452;-65
2022/05/28 02:15:14;;;;;;;2.60;2.53;;;22.70;67.50;;;;;;5052144;28;20451;-66
2022/05/28 02:17:48;;;;;;;2.40;2.40;;;22.60;67.40;;;;;;5055498;28;20450;-66
2022/05/28 02:20:25;;;;;;;2.20;2.20;;;22.70;67.50;;;;;;5055501;28;20460;-67
2022/05/28 02:22:57;;;;;;;2.20;2.20;;;22.60;67.40;;;;;;5055576;28;20475;-66
2022/05/28 02:25:30;;;;;;;2.23;2.20;;;22.60;67.40;;;;;;5055566;28;20445;-66
2022/05/28 02:28:00;;;;;;;2.40;2.40;;;22.60;67.50;;;;;;5055187;28;20444;-65
2022/05/28 02:30:29;;;;;;;2.30;2.30;;;22.60;67.40;;;;;;5055197;28;20528;-66
2022/05/28 02:33:00;;;;;;;2.70;2.60;;;22.60;67.50;;;;;;5055306;28;20911;-66
2022/05/28 02:35:28;;;;;;;2.30;2.30;;;22.60;67.50;;;;;;5055168;28;20451;-66
2022/05/28 02:37:55;;;;;;;2.10;2.10;;;22.60;67.50;;;;;;5054997;28;20459;-65
2022/05/28 02:40:22;;;;;;;2.30;2.30;;;22.60;67.50;;;;;;5054986;28;20506;-66
2022/05/28 02:42:49;;;;;;;2.50;2.40;;;22.60;67.50;;;;;;5054954;28;20485;-66
2022/05/28 02:45:16;;;;;;;2.30;2.30;;;22.60;67.50;;;;;;5055093;28;20439;-66
2022/05/28 02:47:45;;;;;;;2.30;2.30;;;22.60;67.50;;;;;;5054987;28;20811;-66
2022/05/28 02:50:12;;;;;;;2.47;2.40;;;22.60;67.50;;;;;;5054845;28;20460;-65
2022/05/28 02:52:39;;;;;;;2.67;2.67;;;22.50;67.40;;;;;;5055092;28;20451;-66
2022/05/28 02:55:06;;;;;;;2.27;2.27;;;22.50;67.40;;;;;;5054916;28;20451;-66
2022/05/28 02:57:33;;;;;;;2.77;2.63;;;22.50;67.30;;;;;;5054548;28;20455;-65
2022/05/28 03:00:00;;;;;;;2.63;2.40;;;22.50;67.30;;;;;;5054641;28;20459;-66
2022/05/28 03:02:28;;;;;;;2.67;2.57;;;22.50;67.40;;;;;;5054630;28;20466;-66
2022/05/28 03:04:56;;;;;;;2.37;2.30;;;22.50;67.40;;;;;;5054645;28;20805;-66
2022/05/28 03:07:23;;;;;;;2.97;2.87;;;22.50;67.30;;;;;;5054598;28;20440;-66
2022/05/28 03:09:49;;;;;;;2.70;2.60;;;22.50;67.40;;;;;;5054421;28;20474;-65
2022/05/28 03:12:16;;;;;;;2.77;2.67;;;22.50;67.40;;;;;;5054440;28;20451;-66
2022/05/28 03:14:43;;;;;;;2.60;2.50;;;22.50;67.40;;;;;;5054770;28;20752;-66
2022/05/28 03:17:10;;;;;;;2.43;2.33;;;22.50;67.30;;;;;;5054255;28;20452;-65
2022/05/28 03:19:36;;;;;;;2.80;2.70;;;22.50;67.40;;;;;;5054282;28;20467;-66
2022/05/28 03:22:05;;;;;;;2.80;2.70;;;22.50;67.50;;;;;;5054275;28;20443;-66
2022/05/28 03:24:32;;;;;;;3.03;2.93;;;22.50;67.50;;;;;;5054345;28;20511;-65
2022/05/28 03:26:59;;;;;;;2.57;2.47;;;22.40;67.40;;;;;;5053281;28;20447;-66
2022/05/28 03:29:26;;;;;;;3.10;3.00;;;22.40;67.40;;;;;;5054045;28;21040;-66
2022/05/28 03:31:54;;;;;;;2.43;2.40;;;22.40;67.50;;;;;;5054206;28;20524;-66
2022/05/28 03:34:21;;;;;;;2.63;2.40;;;22.40;68.20;;;;;;5054039;28;20440;-66
2022/05/28 03:36:48;;;;;;;2.40;2.40;;;22.40;67.50;;;;;;5053897;28;20448;-66
2022/05/28 03:39:16;;;;;;;2.77;2.77;;;22.40;67.50;;;;;;5054045;28;20479;-65
2022/05/28 03:41:43;;;;;;;2.50;2.40;;;22.40;67.40;;;;;;5054098;28;20444;-65
2022/05/28 03:44:11;;;;;;;2.80;2.70;;;22.40;67.50;;;;;;5054099;28;20955;-66
2022/05/28 03:46:39;;;;;;;2.30;2.30;;;22.40;67.50;;;;;;5053925;28;20455;-66
2022/05/28 03:49:08;;;;;;;2.50;2.40;;;22.40;67.50;;;;;;5054045;28;20491;-66
2022/05/28 03:51:35;;;;;;;3.03;2.97;;;22.40;67.50;;;;;;5054367;28;20444;-66
2022/05/28 03:54:03;;;;;;;3.27;3.17;;;22.40;67.60;;;;;;5054110;28;20923;-66
2022/05/28 03:56:34;;;;;;;2.33;2.33;;;22.40;67.60;;;;;;5053748;28;20464;-66
2022/05/28 03:59:01;;;;;;;2.90;2.70;;;22.40;67.60;;;;;;5053582;28;20460;-66
2022/05/28 04:01:28;;;;;;;3.10;2.80;;;22.30;67.60;;;;;;5053726;28;20782;-66
2022/05/28 04:03:55;;;;;;;2.80;2.70;;;22.30;67.50;;;;;;5053642;28;20488;-66
2022/05/28 04:06:22;;;;;;;2.73;2.73;;;22.30;67.60;;;;;;5054782;28;20448;-66
2022/05/28 04:08:49;;;;;;;3.30;3.13;;;22.30;67.50;;;;;;5054360;28;20795;-66
2022/05/28 04:11:17;;;;;;;2.40;2.30;;;22.30;67.50;;;;;;5053792;28;20448;-66
2022/05/28 04:13:45;;;;;;;3.20;2.93;;;22.30;67.60;;;;;;5053589;28;20444;-66
2022/05/28 04:16:12;;;;;;;3.07;2.97;;;22.30;67.50;;;;;;5053416;28;20448;-66
2022/05/28 04:18:40;;;;;;;2.90;2.90;;;22.30;68.30;;;;;;5052923;28;20971;-66
2022/05/28 04:21:07;;;;;;;3.40;3.30;;;22.30;67.50;;;;;;5053440;28;20448;-66
2022/05/28 04:23:34;;;;;;;2.73;2.63;;;22.30;67.50;;;;;;5053161;28;20480;-66
2022/05/28 04:26:01;;;;;;;3.50;3.40;;;22.30;67.50;;;;;;5053083;28;20810;-65
2022/05/28 04:28:28;;;;;;;3.40;3.23;;;22.30;67.50;;;;;;5078386;22;20840;-64
2022/05/28 04:30:56;;;;;;;2.93;2.90;;;22.30;67.60;;;;;;5060432;28;20444;-65
2022/05/28 04:33:23;;;;;;;3.83;3.67;;;22.30;67.60;;;;;;5069677;28;20436;-63
2022/05/28 04:35:50;;;;;;;3.07;2.90;;;22.30;67.60;;;;;;5072870;28;20453;-64
2022/05/28 04:38:17;;;;;;;2.80;2.70;;;22.30;67.70;;;;;;5071808;28;20440;-64
2022/05/28 04:40:43;;;;;;;2.70;2.70;;;22.30;67.70;;;;;;5053243;28;20475;-64
2022/05/28 04:43:10;;;;;;;3.10;3.00;;;22.30;67.70;;;;;;5052677;28;20506;-64
2022/05/28 04:45:37;;;;;;;2.90;2.80;;;22.30;67.70;;;;;;5052623;28;20444;-64
2022/05/28 04:48:06;;;;;;;3.87;2.90;;;22.30;67.70;;;;;;5052411;28;20451;-64
2022/05/28 04:50:33;;;;;;;3.60;3.50;;;22.30;67.70;;;;;;5052480;28;20479;-64
2022/05/28 04:52:59;;;;;;;3.10;3.00;;;22.30;67.60;;;;;;5052431;28;20448;-64
2022/05/28 04:55:26;;;;;;;2.87;2.77;;;22.30;67.70;;;;;;5052561;28;20452;-64
2022/05/28 04:57:54;;;;;;;3.40;3.20;;;22.30;67.60;;;;;;5052279;28;20450;-66
2022/05/28 05:00:24;;;;;;;3.27;3.10;;;22.30;67.80;;;;;;5052386;28;20518;-66
2022/05/28 05:02:51;;;;;;;3.03;2.93;;;22.30;67.80;;;;;;5052395;28;20444;-64
2022/05/28 05:05:19;;;;;;;4.23;3.93;;;22.30;67.70;;;;;;5052255;28;20905;-64
2022/05/28 05:07:46;;;;;;;3.37;3.27;;;22.40;67.90;;;;;;5052099;28;20444;-64
2022/05/28 05:10:13;;;;;;;3.13;3.13;;;22.40;68.30;;;;;;5052143;28;20479;-64
2022/05/28 05:12:40;;;;;;;3.40;3.30;;;22.40;68.50;;;;;;5052143;28;20444;-64
2022/05/28 05:15:08;;;;;;;4.20;3.80;;;22.40;68.60;;;;;;5052104;28;20827;-65
2022/05/28 05:17:35;;;;;;;3.50;3.40;;;22.40;68.90;;;;;;5051800;28;20451;-64
2022/05/28 05:20:01;;;;;;;3.60;3.50;;;22.40;69.00;;;;;;5052004;28;20476;-65
2022/05/28 05:22:30;;;;;;;3.60;3.50;;;22.40;69.10;;;;;;5051924;28;20539;-63
2022/05/28 05:24:56;;;;;;;3.70;3.60;;;22.40;69.30;;;;;;5051816;28;20484;-64
2022/05/28 05:27:23;;;;;;;3.10;3.10;;;22.40;69.30;;;;;;5051750;28;20479;-64
2022/05/28 05:29:50;;;;;;;3.77;3.60;;;22.40;69.40;;;;;;5051611;28;21003;-64
2022/05/28 05:32:17;;;;;;;3.23;3.13;;;22.40;69.40;;;;;;5051828;28;20448;-63
2022/05/28 05:34:45;;;;;;;3.50;3.40;;;22.40;69.50;;;;;;5051815;28;20444;-64
2022/05/28 05:37:13;;;;;;;3.23;3.23;;;22.40;69.60;;;;;;5051635;28;20459;-64
2022/05/28 05:39:41;;;;;;;3.77;3.67;;;22.40;69.50;;;;;;5051578;28;20476;-65
2022/05/28 05:42:08;;;;;;;3.50;3.40;;;22.40;69.70;;;;;;5051792;28;20436;-64
2022/05/28 05:44:35;;;;;;;3.87;3.50;;;22.50;69.70;;;;;;5051527;28;20494;-64
2022/05/28 05:47:02;;;;;;;3.57;3.47;;;22.50;69.80;;;;;;5051665;28;20440;-63
2022/05/28 05:49:29;;;;;;;3.33;3.23;;;22.50;69.80;;;;;;5051320;28;20815;-64
2022/05/28 05:51:56;;;;;;;3.50;3.40;;;22.50;69.70;;;;;;5051420;28;20455;-64
2022/05/28 05:54:24;;;;;;;3.30;3.20;;;22.50;69.60;;;;;;5051536;28;20448;-64
2022/05/28 05:56:53;;;;;;;3.20;3.10;;;22.50;69.60;;;;;;5051384;28;20989;-64
2022/05/28 05:59:20;;;;;;;3.87;3.67;;;22.50;69.50;;;;;;5051298;28;20971;-64
2022/05/28 06:01:46;;;;;;;3.10;3.10;;;22.50;69.50;;;;;;5051624;28;20468;-65
2022/05/28 06:04:13;;;;;;;3.97;3.87;;;22.50;69.40;;;;;;5051388;28;20484;-63
2022/05/28 06:06:40;;;;;;;3.40;3.40;;;22.50;69.40;;;;;;5051335;28;20451;-64
2022/05/28 06:09:08;;;;;;;3.60;3.50;;;22.50;69.40;;;;;;5051317;28;20471;-67
2022/05/28 06:11:35;;;;;;;3.65;3.55;;;22.50;69.80;;;;;;5051319;28;20438;-67
2022/05/28 06:14:03;;;;;;;3.40;3.30;;;22.60;70.40;;;;;;5051280;28;20201;-66
2022/05/28 06:16:30;;;;;;;3.97;3.87;;;22.60;69.70;;;;;;5051350;28;20497;-67
2022/05/28 06:18:57;;;;;;;4.07;3.93;;;22.60;69.40;;;;;;5050939;28;20464;-66
2022/05/28 06:21:25;;;;;;;3.60;3.50;;;22.60;69.20;;;;;;5051246;28;20444;-66
2022/05/28 06:23:51;;;;;;;4.03;3.93;;;22.60;69.20;;;;;;5051185;28;20479;-66
2022/05/28 06:26:18;;;;;;;3.53;3.37;;;22.60;69.00;;;;;;5051247;28;20444;-66
2022/05/28 06:28:45;;;;;;;3.50;3.40;;;22.50;68.90;;;;;;5050886;28;20471;-65
2022/05/28 06:31:14;;;;;;;4.00;3.90;;;22.50;68.90;;;;;;5051255;28;20436;-66
2022/05/28 06:33:42;;;;;;;3.13;3.00;;;22.60;69.10;;;;;;5051261;28;20467;-67
2022/05/28 06:36:11;;;;;;;3.93;3.73;;;22.60;68.90;;;;;;5051129;28;20444;-65
2022/05/28 06:38:37;;;;;;;3.63;3.63;;;22.60;68.90;;;;;;5050941;28;20454;-66
2022/05/28 06:41:04;;;;;;;3.33;3.20;;;22.60;69.00;;;;;;5051190;28;20451;-66
2022/05/28 06:43:32;;;;;;;3.73;3.60;;;22.60;69.00;;;;;;5051020;28;20448;-66
2022/05/28 06:46:02;;;;;;;3.38;3.28;;;22.60;68.90;;;;;;5050692;28;20463;-67
2022/05/28 06:48:30;;;;;;;3.57;3.40;;;22.60;69.00;;;;;;5050746;28;20249;-66
2022/05/28 06:51:03;;;;;;;3.90;3.80;;;22.70;69.70;;;;;;5051072;28;20935;-65
2022/05/28 06:53:31;;;;;;;3.60;3.53;;;22.70;69.00;;;;;;5051063;28;20448;-65
2022/05/28 06:55:58;;;;;;;3.70;3.60;;;22.70;68.60;;;;;;5051002;28;20440;-64
2022/05/28 06:58:25;;;;;;;3.90;3.80;;;22.70;68.50;;;;;;5050733;28;20455;-64
2022/05/28 07:00:52;;;;;;;4.10;4.00;;;22.70;68.50;;;;;;5051041;28;20805;-64
2022/05/28 07:03:21;;;;;;;3.93;3.47;;;22.70;68.50;;;;;;5053598;28;20462;-64
2022/05/28 07:05:50;;;;;;;3.97;3.87;;;22.70;68.40;;;;;;5054399;28;20484;-64
2022/05/28 07:08:17;;;;;;;3.87;3.67;;;22.70;68.50;;;;;;5054412;28;20815;-64
2022/05/28 07:10:47;;;;;;;2.90;2.70;;;22.70;68.80;;;;;;5054744;28;20439;-66
2022/05/28 07:13:14;;;;;;;4.83;4.63;;;22.70;69.10;;;;;;5055786;28;20443;-66
2022/05/28 07:15:42;;;;;;;3.67;3.57;;;22.70;68.70;;;;;;5055576;28;20746;-64
2022/05/28 07:18:09;;;;;;;4.43;4.13;;;22.70;68.50;;;;;;5055277;28;20444;-67
2022/05/28 07:20:36;;;;;;;3.70;3.70;;;22.70;68.50;;;;;;5055537;28;20475;-65
2022/05/28 07:23:10;;;;;;;3.80;3.70;;;22.80;68.40;;;;;;5055962;28;20448;-68
2022/05/28 07:25:37;;;;;;;4.40;4.23;;;22.70;68.20;;;;;;5055486;28;20476;-64
2022/05/28 07:28:24;;;;;;;3.43;3.40;;;22.70;68.20;;;;;;5055154;28;20491;-66
2022/05/28 07:30:51;;;;;;;3.93;3.83;;;22.70;68.40;;;;;;5054753;28;20482;-64
2022/05/28 07:33:19;;;;;;;3.63;3.63;;;22.80;68.50;;;;;;5054903;28;20463;-64
2022/05/28 07:35:46;;;;;;;4.33;4.13;;;22.80;68.70;;;;;;5054867;28;20440;-65
2022/05/28 07:38:15;;;;;;;3.97;3.87;;;22.80;68.80;;;;;;5054397;28;20448;-65
2022/05/28 07:40:41;;;;;;;3.90;3.80;;;22.80;68.80;;;;;;5054850;28;20472;-67
2022/05/28 07:43:10;;;;;;;4.53;4.43;;;22.80;68.70;;;;;;5055167;28;20455;-66
2022/05/28 07:45:39;;;;;;;3.67;3.57;;;22.80;68.70;;;;;;5054002;28;20476;-67
2022/05/28 07:48:07;;;;;;;4.00;3.90;;;22.70;68.60;;;;;;5053939;28;20788;-65
2022/05/28 07:50:34;;;;;;;3.80;3.80;;;22.80;69.30;;;;;;5054170;28;20555;-66
2022/05/28 07:53:01;;;;;;;3.83;3.80;;;22.80;69.60;;;;;;5054515;28;20953;-68
2022/05/28 07:55:30;;;;;;;4.00;3.90;;;22.80;69.80;;;;;;5054881;28;20447;-65
2022/05/28 07:57:57;;;;;;;4.03;3.83;;;22.80;69.30;;;;;;5054702;28;20443;-64
2022/05/28 08:00:24;;;;;;;4.03;3.93;;;22.80;69.10;;;;;;5054172;28;20518;-62
2022/05/28 08:02:51;;;;;;;3.60;3.60;;;22.80;68.70;;;;;;5054061;28;20445;-62
2022/05/28 08:05:18;;;;;;;4.40;4.30;;;22.80;69.00;;;;;;5053742;28;20479;-63
2022/05/28 08:07:45;;;;;;;3.80;3.70;;;22.80;69.20;;;;;;5055526;28;20448;-63
2022/05/28 08:10:11;;;;;;;3.63;3.63;;;22.80;69.20;;;;;;5055622;28;20472;-63
2022/05/28 08:12:40;;;;;;;4.80;4.70;;;22.80;69.00;;;;;;5054613;28;20441;-61
2022/05/28 08:15:08;;;;;;;4.73;4.53;;;22.80;68.80;;;;;;5054354;28;20447;-63
2022/05/28 08:17:35;;;;;;;4.30;4.20;;;22.80;68.80;;;;;;5053678;28;20468;-63
2022/05/28 08:20:01;;;;;;;5.10;4.90;;;22.80;68.80;;;;;;5053503;28;20487;-63
2022/05/28 08:25:13;;;;;;;3.90;3.80;;;22.80;68.80;;;;;;5053943;28;20614;-63
2022/05/28 08:27:41;;;;;;;4.10;4.00;;;22.80;68.60;;;;;;5053455;28;20449;-62
2022/05/28 08:30:09;;;;;;;4.60;4.50;;;22.80;68.60;;;;;;5053555;28;20472;-63
2022/05/28 08:32:36;;;;;;;3.90;3.73;;;22.80;68.80;;;;;;5053964;28;20472;-62
2022/05/28 08:35:03;;;;;;;4.23;4.13;;;22.80;68.40;;;;;;5053668;28;20445;-63
2022/05/28 08:37:29;;;;;;;4.13;4.03;;;22.80;67.80;;;;;;5053639;28;20440;-64
2022/05/28 08:39:56;;;;;;;4.60;4.50;;;22.90;67.70;;;;;;5053346;28;20470;-63
2022/05/28 08:42:27;;;;;;;4.97;4.67;;;22.90;67.70;;;;;;5053542;28;20811;-63
2022/05/28 08:44:56;;;;;;;5.30;5.13;;;22.90;67.60;;;;;;5053469;28;20484;-64
2022/05/28 08:47:28;;;;;;;5.00;4.90;;;22.80;67.60;;;;;;5053254;28;20928;-65
2022/05/28 08:49:55;;;;;;;4.20;4.00;;;22.90;67.80;;;;;;5053476;28;20487;-63
2022/05/28 08:52:26;;;;;;;5.20;5.00;;;22.80;67.70;;;;;;5053130;28;20813;-63
2022/05/28 08:54:59;;;;;;;4.50;4.30;;;22.80;67.40;;;;;;5053270;28;20470;-64
2022/05/28 08:57:46;;;;;;;4.40;4.20;;;22.80;67.30;;;;;;5053569;28;20448;-63
2022/05/28 09:00:17;;;;;;;4.70;4.60;;;22.80;67.10;;;;;;5053606;28;20467;-64
2022/05/28 09:02:47;;;;;;;4.70;4.60;;;22.90;67.40;;;;;;5053670;28;20440;-64
2022/05/28 09:05:24;;;;;;;4.83;4.73;;;22.80;67.30;;;;;;5053279;28;20483;-63
2022/05/28 09:07:53;;;;;;;4.50;4.40;;;22.80;67.50;;;;;;5053140;28;20444;-63
2022/05/28 09:10:20;;;;;;;4.20;4.10;;;22.80;67.40;;;;;;5052730;28;20463;-64
2022/05/28 09:12:52;;;;;;;4.93;4.83;;;22.80;67.30;;;;;;5053065;28;20806;-64
2022/05/28 09:15:20;;;;;;;4.43;4.33;;;22.80;67.40;;;;;;5053013;28;20475;-64
2022/05/28 09:17:51;;;;;;;4.67;4.47;;;22.90;67.50;;;;;;5052629;28;20445;-64
2022/05/28 09:20:21;;;;;;;4.50;4.40;;;22.90;67.50;;;;;;5052833;28;20468;-66
2022/05/28 09:22:48;;;;;;;4.97;4.87;;;22.90;67.40;;;;;;5053078;28;20938;-64
2022/05/28 09:25:17;;;;;;;4.33;4.23;;;22.90;67.30;;;;;;5051790;28;20484;-62
2022/05/28 09:27:55;;;;;;;4.07;4.07;;;22.90;67.40;;;;;;5052369;28;20443;-63
2022/05/28 09:30:36;;;;;;;4.63;4.53;;;22.90;67.10;;;;;;5053035;28;20476;-62
2022/05/28 09:33:19;;;;;;;4.77;4.67;;;22.90;67.60;;;;;;5053109;28;20440;-63
2022/05/28 09:36:02;;;;;;;4.80;4.70;;;22.90;67.30;;;;;;5052731;28;20470;-63
2022/05/28 09:38:40;;;;;;;4.87;4.70;;;22.90;67.40;;;;;;5052171;28;20444;-64
2022/05/28 09:41:20;;;;;;;4.20;4.17;;;22.90;67.40;;;;;;5052010;28;20439;-64
2022/05/28 09:44:00;;;;;;;4.60;4.50;;;22.90;67.20;;;;;;5052122;28;20448;-65
2022/05/28 09:46:33;;;;;;;4.20;4.20;;;22.90;67.00;;;;;;5052418;28;20479;-62
2022/05/28 09:49:01;;;;;;;4.57;4.43;;;22.90;66.90;;;;;;5052079;28;20975;-62
2022/05/28 09:51:30;;;;;;;4.97;4.87;;;22.90;66.50;;;;;;5052386;28;20939;-63
2022/05/28 09:54:20;;;;;;;4.43;4.33;;;22.90;66.00;;;;;;5052275;28;20450;-63
2022/05/28 09:56:52;;;;;;;4.43;4.33;;;22.90;66.00;;;;;;5052076;28;20448;-63
2022/05/28 09:59:23;;;;;;;4.40;4.30;;;22.90;66.00;;;;;;5052190;28;20826;-63
2022/05/28 10:01:58;;;;;;;3.90;3.80;;;22.90;66.10;;;;;;5052236;28;20452;-63
2022/05/28 10:04:31;;;;;;;5.50;4.97;;;22.90;66.20;;;;;;5052350;28;20447;-63
2022/05/28 10:07:00;;;;;;;6.40;6.10;;;23.00;66.90;;;;;;5051939;28;20444;-64
2022/05/28 10:09:30;;;;;;;5.80;5.37;;;23.00;68.10;;;;;;5052117;28;20460;-63
2022/05/28 10:12:00;;;;;;;10.60;6.87;;;23.00;69.70;;;;;;5052041;28;20953;-63
2022/05/28 10:14:29;;;;;;;6.80;6.17;;;23.00;71.80;;;;;;5052277;28;20803;-62
2022/05/28 10:16:59;;;;;;;6.77;6.20;;;23.10;73.90;;;;;;5051623;28;20435;-61
2022/05/28 10:19:33;;;;;;;7.57;6.97;;;23.10;76.80;;;;;;5051618;28;20459;-62
2022/05/28 10:22:02;;;;;;;10.60;6.40;;;23.10;78.30;;;;;;5052168;28;20790;-62
2022/05/28 10:24:39;;;;;;;9.70;7.50;;;23.10;79.80;;;;;;5051996;28;20436;-63
2022/05/28 10:27:06;;;;;;;7.27;6.60;;;23.10;80.30;;;;;;5051777;28;20443;-63
2022/05/28 10:29:38;;;;;;;9.33;8.30;;;23.20;80.70;;;;;;5072563;22;21011;-64
2022/05/28 10:32:18;;;;;;;13.17;7.93;;;23.20;81.00;;;;;;5071743;28;20439;-65
2022/05/28 10:34:45;;;;;;;7.37;6.77;;;23.10;81.00;;;;;;5071917;28;20443;-63
2022/05/28 10:37:14;;;;;;;9.53;6.30;;;23.20;81.40;;;;;;5074442;28;20446;-65
2022/05/28 10:39:42;;;;;;;7.50;6.80;;;23.20;81.30;;;;;;5068838;28;20460;-69
2022/05/28 10:42:11;;;;;;;7.90;7.10;;;23.20;81.10;;;;;;5055516;28;20444;-69
2022/05/28 10:44:39;;;;;;;7.63;7.03;;;23.10;80.70;;;;;;5055701;28;20435;-64
2022/05/28 10:47:21;;;;;;;5.95;5.32;;;23.10;80.80;;;;;;5054675;28;20457;-65
2022/05/28 10:50:00;;;;;;;8.07;6.60;;;23.20;80.80;;;;;;5055638;28;20229;-62
2022/05/28 10:52:36;;;;;;;8.27;6.10;;;23.20;80.90;;;;;;5055690;28;20452;-64
2022/05/28 10:55:06;;;;;;;7.63;7.20;;;23.20;80.50;;;;;;5055638;28;20452;-65
2022/05/28 10:57:59;;;;;;;6.83;6.33;;;23.20;80.20;;;;;;5055902;28;20440;-65
2022/05/28 11:00:32;;;;;;;6.50;5.70;;;23.20;80.20;;;;;;5055551;28;20463;-64
2022/05/28 11:03:34;;;;;;;7.27;6.17;;;23.20;79.70;;;;;;5055507;28;20455;-64
2022/05/28 11:06:33;;;;;;;7.10;6.40;;;23.20;79.50;;;;;;5044303;28;20475;-63
2022/05/28 11:09:08;;;;;;;6.00;5.70;;;23.20;79.30;;;;;;5019449;28;20444;-63
2022/05/28 11:11:50;;;;;;;8.00;6.73;;;23.20;78.70;;;;;;5055043;28;20442;-63
2022/05/28 11:14:40;;;;;;;7.87;6.50;;;23.20;78.40;;;;;;5055296;28;20766;-63
2022/05/28 11:17:20;;;;;;;6.27;5.70;;;23.20;78.30;;;;;;5055044;28;20428;-63
2022/05/28 11:20:06;;;;;;;5.53;5.20;;;23.20;78.40;;;;;;5054953;28;20518;-67
2022/05/28 11:22:47;;;;;;;10.13;7.47;;;23.20;78.00;;;;;;5054917;28;20798;-65
2022/05/28 11:25:21;;;;;;;5.90;5.37;;;23.20;77.80;;;;;;5055058;28;20812;-62
2022/05/28 11:28:02;;;;;;;6.03;5.27;;;23.20;77.90;;;;;;5054752;28;20444;-62
2022/05/28 11:30:34;;;;;;;5.90;5.40;;;23.20;77.20;;;;;;5054371;28;21005;-63
2022/05/28 11:33:06;;;;;;;6.00;5.50;;;23.20;76.80;;;;;;5054571;28;20927;-64
2022/05/28 11:35:42;;;;;;;5.60;5.23;;;23.20;76.60;;;;;;5054236;28;20440;-64
2022/05/28 11:38:17;;;;;;;5.47;5.17;;;23.20;76.30;;;;;;5054259;28;20448;-63
2022/05/28 11:40:54;;;;;;;6.30;4.63;;;23.20;76.10;;;;;;5054300;28;20460;-63
2022/05/28 11:43:25;;;;;;;6.63;6.13;;;23.20;75.90;;;;;;5054039;28;20443;-64
2022/05/28 11:45:56;;;;;;;5.50;5.07;;;23.20;75.60;;;;;;5054146;28;20978;-63
2022/05/28 11:51:27;;;;;;;5.80;5.40;;;23.20;75.20;;;;;;5053257;28;20971;-63
2022/05/28 11:51:28;;;;;;;7.33;5.03;;;23.20;74.90;;;;;;5054227;28;20433;-64
2022/05/28 11:54:01;;;;;;;4.97;4.77;;;23.20;74.80;;;;;;5054121;28;20506;-64
2022/05/28 11:56:29;;;;;;;4.83;4.60;;;23.20;74.50;;;;;;5053969;28;20448;-64
2022/05/28 11:58:59;;;;;;;5.07;4.87;;;23.20;74.30;;;;;;5053626;28;20444;-63
2022/05/28 12:01:28;;;;;;;6.10;5.60;;;23.20;74.10;;;;;;5054011;28;20458;-64
2022/05/28 12:03:56;;;;;;;4.77;4.47;;;23.20;74.00;;;;;;5053736;28;20444;-63
2022/05/28 12:06:30;;;;;;;5.43;5.13;;;23.20;73.80;;;;;;5053667;28;20480;-63
2022/05/28 12:09:07;;;;;;;5.17;4.90;;;23.20;73.70;;;;;;5053999;28;20448;-64
2022/05/28 12:11:47;;;;;;;5.43;4.70;;;23.20;73.50;;;;;;5054454;28;20435;-64
2022/05/28 12:14:31;;;;;;;5.23;4.60;;;23.20;73.30;;;;;;5054239;28;20449;-63
2022/05/28 12:17:07;;;;;;;4.50;4.30;;;23.20;73.30;;;;;;5053877;28;20501;-64
2022/05/28 12:19:35;;;;;;;4.43;4.23;;;23.20;73.00;;;;;;5053830;28;20467;-64
2022/05/28 12:22:27;;;;;;;4.80;4.50;;;23.20;73.00;;;;;;5053989;28;20451;-64
2022/05/28 12:25:03;;;;;;;4.40;4.20;;;23.20;72.90;;;;;;5053915;28;20444;-63
2022/05/28 12:27:38;;;;;;;5.43;5.13;;;23.20;72.60;;;;;;5053613;28;21005;-64
2022/05/28 12:30:08;;;;;;;4.67;4.47;;;23.20;72.20;;;;;;5053748;28;21020;-62
2022/05/28 12:32:46;;;;;;;4.90;4.60;;;23.20;71.90;;;;;;5053806;28;20452;-63
2022/05/28 12:35:34;;;;;;;4.53;4.43;;;23.20;71.80;;;;;;5054023;28;20452;-63
2022/05/28 12:38:11;;;;;;;4.93;4.47;;;23.20;71.80;;;;;;5053600;28;20445;-64
2022/05/28 12:40:44;;;;;;;5.33;5.03;;;23.20;71.70;;;;;;5053635;28;20495;-64
2022/05/28 12:43:16;;;;;;;5.00;4.63;;;23.20;71.70;;;;;;5053415;28;20440;-63
2022/05/28 12:45:45;;;;;;;4.83;4.47;;;23.10;71.50;;;;;;5053302;28;20570;-64
2022/05/28 12:48:14;;;;;;;4.73;4.43;;;23.20;71.50;;;;;;5053514;28;20451;-64
2022/05/28 12:50:59;;;;;;;5.27;5.07;;;23.20;71.30;;;;;;5053235;28;20495;-64
2022/05/28 12:53:29;;;;;;;4.90;4.70;;;23.20;71.10;;;;;;5053167;28;20444;-63
2022/05/28 12:56:04;;;;;;;4.67;4.37;;;23.20;71.00;;;;;;5052579;28;20443;-63
2022/05/28 12:58:32;;;;;;;4.83;4.70;;;23.20;70.90;;;;;;5052314;28;20444;-62
2022/05/28 13:01:02;;;;;;;4.73;4.43;;;23.20;70.70;;;;;;5052173;28;20526;-64
2022/05/28 13:03:34;;;;;;;4.47;4.27;;;23.20;70.50;;;;;;5052959;28;20449;-64